200 serials | excel password unlocker 4.0.2.3 registration code

Date Name Success Rate
2011-09-08 11:14:16 IM Password Unlocker 3.0.1.1 9%
2012-12-12 20:55:03 MS SQL Server Password Unlocker v3.1.0.0 0%
2012-12-12 20:55:06 MS SQL Server Password Unlocker v3.2 0%
2011-09-08 11:16:28 Internet Explorer Password Unlocker 3.0.1.4 0%
2011-09-08 11:31:51 Microsoft SQL Server Password Unlocker 3.0.2.5 69%
2011-09-08 11:31:51 Microsoft SQL Server Password Unlocker 3.1.0.0 0%
2011-09-08 10:56:11 FontLook v3.1 Registration Code 62%
2011-09-08 11:42:43 Nic O'Matic 1.6 Registration Code 50%
2011-09-08 11:42:43 Nic O'Matic v1.6 Registration Code 55%
2011-09-08 12:54:14 TimeSlips 10.5 enterprise - with registration code! 0%
2012-12-13 05:12:00 Registration Code For PDFZilla Giveaway 0%
2012-12-13 05:12:00 Registration code:-826510-16101-266644 51%
2009-10-22 23:47:42 Excel Password Recovery Master 3.0 65%
2009-10-22 23:49:19 Passware Excel Password Recovery Key 6.3.859 60%
2009-10-22 23:49:19 Passware Excel Password Recovery Key 6.5.918 72%
2011-09-08 09:57:34 Accent Excel Password Recovery v2.10 97%
2011-09-08 10:01:14 Advanced Excel 95 Password Recovery 1.2 0%
2011-09-08 10:01:14 Advanced Excel 95 Password Recovery v1.2 0%
2011-09-08 10:50:26 Excel 95 Password Recovery Advanced v1.2 0%
2011-09-08 12:28:29 Passware Excel Password Recovery Key 6.3.859 0%
2011-09-08 12:28:29 Passware Excel Password Recovery Key 6.5.918 0%
2011-09-08 12:28:29 Passware Excel Password Recovery Key v6.3.859 0%
2011-09-08 12:28:29 Passware Excel Password Recovery Key v6.5.918 20%
2012-12-12 11:11:48 Excel Password Recovery Master 3.5 53%
2011-09-08 12:28:40 Password Pro v2.0.0 Code 0%
2011-09-08 10:01:14 Advanced Excel 2000 Password Recovery 1.11 0%
2011-09-08 10:01:14 Advanced Excel 2000 Password Recovery v1.11 0%
2011-09-08 10:01:14 Advanced Excel 2000 Password Recovery (null) 0%
2011-09-08 11:21:45 KGL UNLOCKER 0%
2011-09-08 11:21:45 KGL Unlocker 1.11 0%
2011-09-08 11:21:45 KGL Unlocker v1.11 0%
2011-09-08 10:44:24 Doctris v1.0 UNLOCKER 76%
2011-09-08 13:08:41 Universal SP Unlocker Update 5.0.1 0%
2011-09-08 13:08:41 Universal SP Unlocker Update v5.0.1 0%
2012-12-13 16:59:25 Warhammer 40.000 Dawn of War - Soulstorm - Race Unlocker 37%
2009-10-17 06:32:24 Sobolsoft Excel Import Multiple Excel Files V7.0 0%
2009-10-22 23:49:55 Sobolsoft Excel Import Multiple Excel Files V7.0 0%
2011-09-08 10:42:09 DAS Registration 1.5.2 66%
2011-09-08 10:42:09 DAS Registration For CW5 0%
2011-09-08 10:42:09 DAS Registration v1.5.2 0%
2009-10-22 23:50:12 Tools For Excel Tables For MS Excel V1.1 0%
2009-10-17 06:27:02 Lazarus Registration DLL V1.0 59%
2009-10-22 23:48:48 MemoriesonTV Registration 0%
2009-10-22 23:49:42 Registration Wizard 40%
2011-09-08 10:06:47 AnetHelpTool v4.02 Registration 52%
2011-09-08 10:22:13 ByeLines Registration 60%
2011-09-08 10:57:42 Ftgate Registration 63%
2011-09-08 11:15:16 Infodex v2.10 Registration 0%
2011-09-08 11:25:08 Lazarus Registration DLL v1.0 0%
2011-09-08 11:27:46 Mac Opener v3.0 Registration 57%
2011-09-08 11:32:59 mIRC v4.5+ Registration 60%
2011-09-08 11:32:59 mIRC v4.52 Registration 60%
2011-09-08 12:37:02 Quant v2.0 Registration 0%
2011-09-08 12:41:14 Registration Suite 1.0 60%
2011-09-08 12:41:14 Registration Suite v1.0 60%
2011-09-08 12:41:14 Registration Wizard Pro 5.01 46%
2011-09-08 12:41:14 Registration Wizard Pro v5.01 60%
2011-09-08 13:18:59 WinHacker 95 v2.02 Registration 57%
2012-12-13 05:12:00 Registration Key : 526EFEF086E09600449E667EA2DAE8E2E6D642BC 83%
2009-10-22 23:27:21 Ardamax Keylogger 2.9 Registration 56%
2009-10-22 23:48:49 Microsoft Registration Hacker - 39%
2009-10-22 23:49:57 SoudForge ALL (No Registration Requiered) 0%
2009-10-22 23:50:26 Valve's Registration Armor Key-Gen 60%
2011-09-08 10:21:42 Browserola v1.01 Temp. Registration 0%
2011-09-08 11:31:51 Microsoft Registration Hacker 0%
2011-09-08 11:31:51 Microsoft Registration Hacker - 0%
2011-09-08 11:31:51 Microsoft Registration HackerMSREGHACK 0%
2011-09-08 11:32:07 Microstation v5.xx.xx & 95 FULL REGISTRATION 48%
2011-09-08 12:34:57 PolyTrans V1.2E Registration Activator CD-Key 62%
2011-09-08 12:34:57 PolyView v2.9b16 Registration 0%
2011-09-08 12:54:09 Time Registration (German) 1.10 0%
2011-09-08 12:59:30 Super Collapse Registration 100%
2011-09-08 13:23:15 Yipe! II for Windows Registration #154 0%
2012-12-13 08:49:53 Softwarenetz Time Registration v1.10 0%
2012-12-13 08:49:56 Softwarenetz Time Registration v1.14 0%
2012-12-13 15:34:10 Valve's Registration Armor Key-Gen 0%
2009-10-22 23:48:17 Internet Download Manager Registration 50%
2011-09-08 10:25:56 Cheyenne Bitware V4.0 Registration Number 60%
2011-09-08 11:31:51 Microsoft Registration Hacker MSREGHACK 80%
2011-09-08 11:31:51 Microsoft Visual Basic 5 registration cd key 72%
2012-12-12 08:07:32 Download avast 5.0.667 Antivirus registration 0%
2012-12-13 05:12:00 Registration key for x-3gp-video-converter-38540 54%
2012-12-13 13:12:40 Total Image Converter Registration Key 57%
2011-09-08 11:30:16 MediaBlaze 98 v1.01 Win95/NT User: delphic Registration 0%
2009-10-22 23:49:02 Norton Internet Security 2005 Registration Guide 0%
2011-09-08 09:58:40 Acoustica Mixcraft v1.10 Build 15 Registration Info by MaBi 60%
2012-12-12 19:40:26 Microsoft Visual Basic 2008 Express Edition Registration key 55%
2011-09-08 12:54:48 Top Password Google Talk Password Recovery 1.0 60%
2012-12-13 13:08:27 Top Password Password Recovery Bundle 2010.v1.30 58%
2011-09-08 12:54:48 Top Password Dialup Password Recovery 1.0 0%
2011-09-08 12:54:48 Top Password Miranda Password Recovery 1.0 0%
2011-09-08 12:54:50 Top Password Outlook Password Recovery 1.0 0%
2011-09-08 12:54:50 Top Password Trillian Password Recovery 1.0 0%
2009-10-17 06:31:28 R-Excel V1.2 0%
2011-09-08 10:50:24 Excel 0%
2011-09-08 10:50:24 Excel 3.0 0%
2011-09-08 10:50:24 Excel 4.0 0%
2011-09-08 10:50:24 Excel 5.0c 0%
2011-09-08 10:50:26 Excel UK 7.0 0%
2011-09-08 10:50:26 Excel UK v7.0 0%
2011-09-08 10:50:26 Excel v3.0 58%
2011-09-08 10:50:26 Excel v4.0 0%
2011-09-08 10:50:26 Excel v5.0c 0%
2009-10-17 06:20:18 Checkbook For Excel V4.2 15%
2009-10-17 06:20:18 Checkbook For Excel V5.1d 68%
2009-10-17 06:20:18 Checkbook For Excel V5.1f 10%
2009-10-17 06:20:18 Checkbook For Excel V5.2 15%
2009-10-17 06:20:18 Checkbook For Excel V5.2a 21%
2009-10-17 06:20:38 Convert XLS To PDF For Excel V2.00 61%
2009-10-17 06:20:38 Convert XLS To PDF For Excel V3.50 60%
2009-10-17 06:20:39 Create For Excel V3.0.0.322 12%
2009-10-17 06:22:21 Excel Key V7.0.1180 19%
2009-10-17 06:22:21 Excel Merger V3.0-ONE 18%
2009-10-17 06:22:21 Excel To PDF Converter V1.0 14%
2009-10-17 06:22:21 Excel To PDF Converter V3.0 20%
2009-10-17 06:31:28 R-Excel V1.0.1019 0%
2009-10-17 06:32:24 Sobolsoft Excel FTP V7.0 0%
2009-10-17 06:32:55 Synkronizer For Excel V9.1 100%
2009-10-17 06:33:19 Tax Assistant For Excel V3.5c 0%
2009-10-22 23:45:51 Checkbook For Excel 1.41b 0%
2009-10-22 23:45:51 Checkbook For Excel 3.5b 0%
2009-10-22 23:45:51 Checkbook For Excel V4.2 0%
2009-10-22 23:45:51 Checkbook For Excel V5.1 0%
2009-10-22 23:45:51 Checkbook For Excel V5.2 0%
2009-10-22 23:45:51 Checkbook For Excel V5.2 0%
2009-10-22 23:45:51 Checkbook For Excel V5.2 0%
2009-10-22 23:45:55 Convert XLS To PDF For Excel 1.0 0%
2009-10-22 23:45:55 Convert XLS To PDF For Excel 2.00 0%
2009-10-22 23:45:56 Create For Excel V3.0.0.322 0%
2009-10-22 23:47:42 Excel 1.0.1019 0%
2009-10-22 23:47:42 Excel Key 7.0.1180 0%
2009-10-22 23:47:42 Excel To PDF Converter 1.0 0%
2009-10-22 23:47:42 Excel To PDF Converter 3.0 0%
2009-10-22 23:47:42 Excel To PDF Converter V3.0 0%
2009-10-22 23:49:51 Scheduler For Excel 1.0 0%
2009-10-22 23:50:03 Synkronizer For Excel V9.1 20%
2009-10-22 23:50:08 Tax Assistant For Excel V3.5 0%
2011-09-08 10:25:39 Checkbook for Excel 3.5b 0%
2011-09-08 10:25:39 Checkbook for Excel 5.2e 0%
2011-09-08 10:25:39 Checkbook for Excel v1.41b 0%
2011-09-08 10:25:39 Checkbook for Excel v3.5b 0%
2011-09-08 10:28:48 Convert Excel To CSV 29.12.28 0%
2011-09-08 10:28:48 Convert Excel To DBF 29.12.26 0%
2011-09-08 10:28:48 Convert Excel To TXT 29.12.29 0%
2011-09-08 10:28:48 Convert XLS Excel to PDF v1.0 0%
2011-09-08 10:28:48 Convert XLS to PDF For Excel 1.0 0%
2011-09-08 10:28:48 Convert XLS to PDF For Excel 2.00 60%
2011-09-08 10:28:48 Convert XLS to PDF For Excel v1.0 0%
2011-09-08 10:28:48 Convert XLS to PDF For Excel v2.00 0%
2011-09-08 10:42:17 DataMiner 3D for Excel 1.2 0%
2011-09-08 10:42:17 DataMiner 3D for Excel v1.2 0%
2011-09-08 10:50:24 Excel (null) 0%
2011-09-08 10:50:24 Excel 2000 0%
2011-09-08 10:50:26 Excel EIS Builder 1.1 0%
2011-09-08 10:50:26 Excel EIS Builder v1.1 0%
2011-09-08 10:50:26 Excel Key 7.0.1180 0%
2011-09-08 10:50:26 Excel Key v7.0.1180 0%
2011-09-08 10:50:26 Excel Recovery 1.0 60%
2011-09-08 10:50:26 Excel Recovery 2.1.15 28%
2011-09-08 10:50:26 Excel Recovery v1.0 0%
2011-09-08 10:50:26 Excel Recovery v2.1.15 40%
2011-09-08 10:50:26 Excel to PDF Converter 1.0 0%
2011-09-08 10:50:26 Excel to PDF Converter 3 0%
2011-09-08 10:50:26 Excel to PDF Converter Pro 3.0 0%
2011-09-08 10:50:26 Excel to PDF Converter v1.0 0%
2011-09-08 10:50:26 Excel to PDF Converter v1.00 0%
2011-09-08 10:50:26 Excel to PDF Converter v3.0 0%
2011-09-08 10:50:26 Excel Y2k Checker 2.1 0%
2011-09-08 10:50:26 Excel Y2k Checker v2.1 0%
2011-09-08 11:31:23 Microsoft Excel v4.0 mac 0%
2011-09-08 11:31:23 Microsoft Excel v5.0 0%
2011-09-08 11:31:23 Microsoft Excel v5.0c Win 0%
2011-09-08 11:31:23 Microsoft Excel v7.0 0%
2011-09-08 11:31:23 Microsoft Excel v7.0 UK Win 0%
2011-09-08 12:40:02 R-Excel 1.0 b 1019 0%
2011-09-08 12:45:41 Scheduler for Excel 1.0 0%
2011-09-08 12:45:41 Scheduler for Excel 1.1 0%
2011-09-08 12:45:41 Scheduler for Excel v1.0 0%
2011-09-08 13:00:48 Synkronizer for Excel v8.0 0%
2011-09-08 13:20:07 Winzip9.0 excel 80%
2012-12-12 05:36:33 Checkbook For Excel v5.3 0%
2012-12-12 06:21:22 Convert Excel To CSV v29.12.28 0%
2012-12-12 06:21:22 Convert Excel To DBF v29.12.26 0%
2012-12-12 06:21:22 Convert Excel to TXT v29.12.29 0%
2012-12-12 11:56:59 Finanzplan für Excel 0%
2012-12-13 06:48:37 Scheduler for Excel v1.1 0%
2009-10-17 06:20:38 ConcreteCOST Estimator For Excel V2.01 13%
2009-10-17 06:20:38 Convert XLS To PDF For Excel V2.00.010905 13%
2009-10-17 06:20:38 Convert XLS To PDF For Excel V2.00.022605 21%
2009-10-17 06:20:38 Convert XLS To PDF For Excel V2.00.030505 14%
2009-10-17 06:20:38 Convert XLS To PDF For Excel V2.00.032605 25%
2009-10-17 06:20:38 Convert XLS To PDF For Excel V2.00.052405 18%
2009-10-17 06:22:21 Excel Recovery V2005 43%
2009-10-17 06:22:21 Excel To PDF Converer V3.0 By UnREal 15%
2009-10-17 06:22:21 Excel To PDF Converter V3.0.010905 17%
2009-10-17 06:22:21 Excel To PDF Converter V3.0.022605 17%
2009-10-17 06:22:21 Excel To PDF Converter V3.0.030505 12%
2009-10-17 06:22:21 Excel To PDF Converter V3.0.032605 20%
2009-10-17 06:22:21 Excel To PDF Converter V3.0.052405 14%
2009-10-17 06:23:03 FloorCOST Estimator For Excel V4.00 10%